Time;durP1;ratioP1;P1;durP2;ratioP2;P2;SDS_P1;SDS_P2;PMS_P1;PMS_P2;Temp;Humidity;BMP_temperature;BMP_pressure;BME280_temperature;BME280_humidity;BME280_pressure;Samples;Min_cycle;Max_cycle;Signal;HPM_P1;HPM_P2
2023/03/29 00:01:17;;;;;;;6.03;5.60;;;;;;;4.69;100.00;97080.53;5032288;28;20729;-70
2023/03/29 00:03:44;;;;;;;5.87;5.37;;;;;;;4.74;100.00;97080.78;5033746;28;20248;-70
2023/03/29 00:06:13;;;;;;;6.53;6.03;;;;;;;4.84;100.00;97073.53;5015512;28;20289;-70
2023/03/29 00:08:40;;;;;;;6.00;5.30;;;;;;;4.96;100.00;97068.66;5048036;28;20182;-70
2023/03/29 00:11:06;;;;;;;5.80;5.37;;;;;;;4.93;100.00;97082.00;5044162;28;20202;-70
2023/03/29 00:13:32;;;;;;;5.63;5.13;;;;;;;5.00;100.00;97067.31;5037996;28;20323;-70
2023/03/29 00:15:57;;;;;;;6.23;5.70;;;;;;;5.03;100.00;97077.31;5052263;28;20268;-70
2023/03/29 00:18:22;;;;;;;7.57;5.30;;;;;;;5.04;100.00;97063.34;5030318;28;20187;-70
2023/03/29 00:20:55;;;;;;;5.90;5.50;;;;;;;5.10;100.00;97074.78;5032691;28;20186;-70
2023/03/29 00:23:21;;;;;;;5.57;5.17;;;;;;;5.03;100.00;97064.31;5022363;28;20206;-71
2023/03/29 00:25:47;;;;;;;6.23;5.70;;;;;;;5.00;100.00;97052.53;5032620;28;20701;-70
2023/03/29 00:28:13;;;;;;;6.37;5.87;;;;;;;5.00;100.00;97056.91;5033371;28;20186;-70
2023/03/29 00:30:39;;;;;;;5.67;5.20;;;;;;;4.98;100.00;97048.50;5050196;28;20181;-70
2023/03/29 00:33:04;;;;;;;8.03;5.93;;;;;;;4.91;100.00;97048.44;5050317;28;20541;-70
2023/03/29 00:35:30;;;;;;;5.80;5.30;;;;;;;4.85;100.00;97043.16;5051629;28;20190;-70
2023/03/29 00:37:56;;;;;;;7.30;5.53;;;;;;;4.82;100.00;97035.75;5051893;28;20320;-70
2023/03/29 00:40:22;;;;;;;5.53;5.13;;;;;;;4.84;100.00;97036.38;5034453;28;20186;-70
2023/03/29 00:42:47;;;;;;;6.03;5.00;;;;;;;4.76;100.00;97037.28;5037086;28;20182;-70
2023/03/29 00:45:25;;;;;;;7.37;5.40;;;;;;;4.78;100.00;97029.31;5051124;28;20182;-70
2023/03/29 00:47:56;;;;;;;6.20;5.70;;;;;;;4.72;100.00;97023.06;5051500;28;20650;-70
2023/03/29 00:50:28;;;;;;;6.70;6.20;;;;;;;4.63;100.00;97020.75;5048906;28;20178;-70
2023/03/29 00:53:18;;;;;;;7.40;6.70;;;;;;;4.58;100.00;97016.94;5044371;28;20690;-70
2023/03/29 00:56:06;;;;;;;7.40;6.80;;;;;;;4.60;100.00;97027.13;5041012;28;20202;-70
2023/03/29 00:58:42;;;;;;;7.67;6.83;;;;;;;4.70;100.00;97032.03;5055686;28;20212;-70
2023/03/29 01:01:14;;;;;;;8.27;7.67;;;;;;;4.68;100.00;97027.00;5035780;28;20589;-70
2023/03/29 01:03:47;;;;;;;7.37;6.87;;;;;;;4.72;100.00;97024.88;5036082;28;20224;-71
2023/03/29 01:06:17;;;;;;;7.13;6.63;;;;;;;4.66;100.00;97018.63;5050832;28;20209;-71
2023/03/29 01:08:49;;;;;;;6.43;5.97;;;;;;;4.68;100.00;97008.06;5039524;28;20614;-71
2023/03/29 01:11:23;;;;;;;7.33;6.80;;;;;;;4.59;100.00;97008.16;5037524;28;20514;-71
2023/03/29 01:13:57;;;;;;;7.23;6.63;;;;;;;4.56;100.00;97008.53;5036083;28;20175;-71
2023/03/29 01:16:25;;;;;;;8.00;7.20;;;;;;;4.67;100.00;96999.47;5032190;28;20182;-68
2023/03/29 01:18:51;;;;;;;8.07;7.13;;;;;;;4.62;100.00;96977.63;5054743;28;20182;-68
2023/03/29 01:21:22;;;;;;;6.97;6.43;;;;;;;4.56;100.00;96974.00;5055220;28;20602;-68
2023/03/29 01:23:53;;;;;;;8.33;7.53;;;;;;;4.59;100.00;96981.38;5028846;28;20190;-68
2023/03/29 01:26:51;;;;;;;8.00;7.40;;;;;;;4.64;100.00;96983.44;5026013;28;20755;-68
2023/03/29 01:29:25;;;;;;;8.50;7.67;;;;;;;4.74;100.00;96981.31;5035181;28;20198;-68
2023/03/29 01:32:03;;;;;;;7.73;7.20;;;;;;;4.72;100.00;96970.34;5035716;28;20269;-69
2023/03/29 01:34:32;;;;;;;8.20;7.60;;;;;;;4.75;100.00;96973.38;5047089;28;20193;-69
2023/03/29 01:37:06;;;;;;;7.63;7.03;;;;;;;4.75;100.00;96959.56;5040423;28;20190;-69
2023/03/29 01:39:33;;;;;;;7.20;6.50;;;;;;;4.81;100.00;96967.44;5050341;28;20258;-69
2023/03/29 01:42:14;;;;;;;7.63;7.13;;;;;;;4.75;100.00;96962.16;5054626;28;20186;-69
2023/03/29 01:44:45;;;;;;;7.60;7.07;;;;;;;4.68;100.00;96963.94;5053451;28;20178;-69
2023/03/29 01:47:16;;;;;;;7.80;6.97;;;;;;;4.78;100.00;96960.03;5036360;28;20227;-69
2023/03/29 01:49:57;;;;;;;7.00;6.50;;;;;;;4.73;100.00;96957.19;5038170;28;20667;-69
2023/03/29 01:52:30;;;;;;;6.73;6.10;;;;;;;4.79;100.00;96953.81;5041381;28;20573;-69
2023/03/29 01:55:02;;;;;;;6.80;6.40;;;;;;;4.76;100.00;96941.22;5039177;28;20247;-69
2023/03/29 01:57:31;;;;;;;6.30;5.80;;;;;;;4.72;100.00;96939.19;5053416;28;20181;-69
2023/03/29 01:59:58;;;;;;;6.20;5.80;;;;;;;4.70;100.00;96941.16;5047945;28;20197;-69
2023/03/29 02:02:26;;;;;;;6.77;5.40;;;;;;;4.57;100.00;96929.66;5039146;28;20678;-70
2023/03/29 02:04:53;;;;;;;7.13;6.20;;;;;;;4.62;100.00;96908.34;5025270;28;20587;-69
2023/03/29 02:07:24;;;;;;;7.40;6.90;;;;;;;4.50;100.00;96904.66;5034009;28;20286;-69
2023/03/29 02:09:52;;;;;;;6.43;5.80;;;;;;;4.42;100.00;96910.75;5015876;28;20172;-69
2023/03/29 02:12:18;;;;;;;7.50;5.67;;;;;;;4.54;100.00;96893.72;5016600;28;20211;-69
2023/03/29 02:14:43;;;;;;;6.60;6.10;;;;;;;4.52;100.00;96903.47;5026233;28;20211;-69
2023/03/29 02:17:22;;;;;;;6.27;5.73;;;;;;;4.54;100.00;96891.09;5034250;28;20269;-69
2023/03/29 02:19:55;;;;;;;5.87;5.30;;;;;;;4.57;100.00;96900.31;5034293;28;20646;-69
2023/03/29 02:22:34;;;;;;;6.10;5.60;;;;;;;4.54;100.00;96890.31;5031726;28;20659;-69
2023/03/29 02:25:02;;;;;;;5.83;5.37;;;;;;;4.60;100.00;96889.56;5022322;28;20519;-69
2023/03/29 02:27:28;;;;;;;7.37;5.10;;;;;;;4.53;100.00;96892.09;5006690;28;20190;-69
2023/03/29 02:29:54;;;;;;;5.40;5.00;;;;;;;4.62;100.00;96889.38;5014829;28;20230;-69
2023/03/29 02:32:25;;;;;;;6.07;5.40;;;;;;;4.65;100.00;96899.38;5015975;28;20194;-69
2023/03/29 02:35:06;;;;;;;5.50;4.73;;;;;;;4.64;100.00;96889.97;5025763;28;20666;-69
2023/03/29 02:37:33;;;;;;;6.40;4.80;;;;;;;4.63;100.00;96886.59;5005039;28;20183;-69
2023/03/29 02:40:00;;;;;;;5.13;4.57;;;;;;;4.66;100.00;96895.81;5014958;28;20182;-69
2023/03/29 02:42:26;;;;;;;6.23;5.73;;;;;;;4.67;100.00;96897.41;5014432;28;20191;-69
2023/03/29 02:44:57;;;;;;;6.83;6.30;;;;;;;4.72;100.00;96889.88;5020480;28;20274;-69
2023/03/29 02:47:32;;;;;;;7.07;6.57;;;;;;;4.78;100.00;96889.13;5024099;28;20190;-70
2023/03/29 02:49:58;;;;;;;6.67;6.27;;;;;;;4.80;100.00;96882.72;5014419;28;20193;-69
2023/03/29 02:52:38;;;;;;;6.50;6.10;;;;;;;4.85;100.00;96876.97;5013697;28;20648;-69
2023/03/29 02:55:08;;;;;;;7.30;6.87;;;;;;;4.88;100.00;96868.81;5020947;28;20199;-69
2023/03/29 02:57:37;;;;;;;6.70;6.20;;;;;;;4.91;100.00;96864.03;5012877;28;20180;-69
2023/03/29 03:00:03;;;;;;;6.97;6.47;;;;;;;4.82;100.00;96861.78;5014049;28;20543;-69
2023/03/29 03:02:29;;;;;;;5.70;5.30;;;;;;;4.84;100.00;96858.03;5029992;28;20682;-69
2023/03/29 03:04:54;;;;;;;5.30;4.90;;;;;;;4.86;100.00;96850.81;5034700;28;20183;-69
2023/03/29 03:07:20;;;;;;;5.50;5.03;;;;;;;4.80;100.00;96838.59;5033351;28;20205;-69
2023/03/29 03:09:46;;;;;;;5.23;4.83;;;;;;;4.82;100.00;96841.81;5051213;28;20190;-69
2023/03/29 03:12:12;;;;;;;5.10;4.70;;;;;;;4.81;100.00;96834.22;5039733;28;20186;-69
2023/03/29 03:14:38;;;;;;;5.83;5.03;;;;;;;4.77;100.00;96840.78;5042204;28;20187;-69
2023/03/29 03:17:03;;;;;;;5.57;5.17;;;;;;;4.82;100.00;96838.41;5036432;28;20186;-69
2023/03/29 03:19:29;;;;;;;5.33;4.83;;;;;;;4.90;100.00;96848.66;5052676;28;20582;-69
2023/03/29 03:21:54;;;;;;;6.00;5.50;;;;;;;4.95;100.00;96849.72;5042883;28;20236;-69
2023/03/29 03:24:20;;;;;;;5.77;5.17;;;;;;;5.01;100.00;96848.94;5033431;28;20182;-69
2023/03/29 03:26:45;;;;;;;5.83;5.43;;;;;;;5.07;100.00;96859.56;5032916;28;20222;-69
2023/03/29 03:29:12;;;;;;;6.63;6.13;;;;;;;5.14;100.00;96861.19;5015886;28;20229;-70
2023/03/29 03:31:40;;;;;;;4.77;4.27;;;;;;;5.14;100.00;96855.19;5041225;28;20270;-69
2023/03/29 03:34:07;;;;;;;6.60;6.17;;;;;;;5.27;100.00;96847.50;5025214;28;20631;-69
2023/03/29 03:36:33;;;;;;;5.23;4.90;;;;;;;5.42;100.00;96858.56;5033199;28;20187;-69
2023/03/29 03:39:00;;;;;;;4.30;3.90;;;;;;;5.53;100.00;96854.63;5033209;28;20205;-69
2023/03/29 03:41:26;;;;;;;4.33;3.93;;;;;;;5.50;100.00;96853.22;5036361;28;20189;-69
2023/03/29 03:43:51;;;;;;;4.47;4.10;;;;;;;5.62;100.00;96848.28;5051896;28;20192;-69
2023/03/29 03:46:16;;;;;;;4.40;4.10;;;;;;;5.65;100.00;96845.28;5052102;28;20210;-69
2023/03/29 03:48:42;;;;;;;3.70;3.50;;;;;;;5.68;100.00;96843.13;5052457;28;20174;-69
2023/03/29 03:51:09;;;;;;;4.80;4.20;;;;;;;5.64;100.00;96846.28;5044353;28;20213;-68
2023/03/29 03:53:34;;;;;;;4.43;4.03;;;;;;;5.68;100.00;96848.31;5014610;28;20235;-68
2023/03/29 03:56:01;;;;;;;4.73;4.40;;;;;;;5.72;100.00;96849.53;5032537;28;20687;-69
2023/03/29 03:58:26;;;;;;;4.63;4.30;;;;;;;5.70;100.00;96855.91;5032895;28;20293;-69
2023/03/29 04:00:52;;;;;;;8.37;7.90;;;;;;;5.80;100.00;96853.72;5031699;28;20183;-69
2023/03/29 04:03:19;;;;;;;5.67;4.73;;;;;;;5.70;100.00;96853.28;5030263;28;20277;-69
2023/03/29 04:05:45;;;;;;;4.87;4.57;;;;;;;5.77;100.00;96860.13;5032115;28;20591;-69
2023/03/29 04:08:12;;;;;;;4.07;3.77;;;;;;;5.78;100.00;96860.94;5020220;28;20277;-69
2023/03/29 04:10:38;;;;;;;4.47;4.17;;;;;;;5.78;100.00;96853.94;5014600;28;20187;-69
2023/03/29 04:13:04;;;;;;;4.13;3.83;;;;;;;5.79;100.00;96863.34;5013525;28;20191;-69
2023/03/29 04:15:31;;;;;;;5.00;4.63;;;;;;;5.83;99.07;96861.97;5013315;28;20194;-69
2023/03/29 04:17:57;;;;;;;5.57;5.27;;;;;;;5.90;99.26;96859.44;5018331;28;20581;-69
2023/03/29 04:20:23;;;;;;;6.77;6.37;;;;;;;5.90;97.99;96862.03;5030877;28;20269;-69
2023/03/29 04:22:49;;;;;;;7.27;6.87;;;;;;;5.98;97.50;96863.63;5014945;28;20258;-69
2023/03/29 04:25:15;;;;;;;8.60;8.10;;;;;;;6.00;97.04;96862.44;5031352;28;20187;-69
2023/03/29 04:27:41;;;;;;;6.23;5.83;;;;;;;6.05;96.18;96861.84;5031989;28;20651;-69
2023/03/29 04:30:08;;;;;;;4.63;4.23;;;;;;;6.10;94.96;96864.69;5021831;28;20194;-69
2023/03/29 04:32:33;;;;;;;4.73;4.43;;;;;;;6.15;95.00;96862.28;5034066;28;20182;-69
2023/03/29 04:34:59;;;;;;;5.00;4.70;;;;;;;6.17;95.03;96866.31;5036172;28;20198;-69
2023/03/29 04:37:24;;;;;;;6.33;5.93;;;;;;;6.20;94.81;96868.50;5035841;28;20606;-69
2023/03/29 04:39:51;;;;;;;6.67;6.30;;;;;;;6.20;93.97;96868.50;5026004;28;20570;-69
2023/03/29 04:42:17;;;;;;;7.03;6.63;;;;;;;6.20;93.30;96875.50;5016457;28;20203;-69
2023/03/29 04:44:42;;;;;;;7.20;6.67;;;;;;;6.24;94.12;96881.94;5016633;28;20186;-69
2023/03/29 04:47:11;;;;;;;5.60;5.10;;;;;;;6.26;92.77;96870.31;5016452;28;20285;-69
2023/03/29 04:49:37;;;;;;;5.10;4.90;;;;;;;6.23;93.00;96870.72;5023735;28;20179;-69
2023/03/29 04:52:02;;;;;;;4.90;4.50;;;;;;;6.35;92.23;96868.34;5018678;28;20610;-69
2023/03/29 04:54:27;;;;;;;5.47;5.00;;;;;;;6.26;92.63;96870.31;5017651;28;20171;-68
2023/03/29 04:56:53;;;;;;;4.17;3.97;;;;;;;6.34;91.22;96864.13;5017293;28;20190;-68
2023/03/29 04:59:18;;;;;;;3.70;3.50;;;;;;;6.42;90.50;96855.31;5030222;28;20177;-68
2023/03/29 05:01:44;;;;;;;4.30;4.07;;;;;;;6.36;91.37;96861.31;5032379;28;20222;-69
2023/03/29 05:04:09;;;;;;;4.57;4.27;;;;;;;6.34;90.54;96860.72;5035357;28;20182;-68
2023/03/29 05:06:35;;;;;;;5.97;5.67;;;;;;;6.46;89.95;96859.97;5031209;28;20238;-68
2023/03/29 05:09:01;;;;;;;6.70;6.27;;;;;;;6.42;89.46;96850.91;5016095;28;20195;-68
2023/03/29 05:11:26;;;;;;;6.27;5.83;;;;;;;6.53;88.72;96852.94;5029622;28;20580;-69
2023/03/29 05:13:54;;;;;;;5.23;4.97;;;;;;;6.52;88.56;96856.53;5034126;28;20179;-68
2023/03/29 05:16:19;;;;;;;5.17;4.87;;;;;;;6.60;87.60;96865.97;5015405;28;20218;-68
2023/03/29 05:18:45;;;;;;;5.10;4.90;;;;;;;6.63;88.09;96861.16;5031614;28;20266;-68
2023/03/29 05:21:10;;;;;;;4.13;3.93;;;;;;;6.68;86.93;96856.16;5034591;28;20179;-68
2023/03/29 05:23:36;;;;;;;4.93;4.70;;;;;;;6.69;86.28;96865.56;5035381;28;20655;-68
2023/03/29 05:26:02;;;;;;;4.50;4.20;;;;;;;6.71;86.33;96865.38;5033203;28;20242;-70
2023/03/29 05:28:28;;;;;;;3.40;3.23;;;;;;;6.75;85.69;96866.56;5034817;28;20265;-69
2023/03/29 05:31:02;;;;;;;5.00;4.27;;;;;;;6.78;85.33;96868.78;5017428;28;20274;-70
2023/03/29 05:33:29;;;;;;;4.53;4.33;;;;;;;6.81;85.07;96870.16;4997983;28;20224;-69
2023/03/29 05:36:07;;;;;;;4.63;4.13;;;;;;;6.78;85.29;96863.56;5031331;28;20265;-69
2023/03/29 05:38:32;;;;;;;4.00;3.70;;;;;;;6.79;84.59;96859.16;5015550;28;20177;-69
2023/03/29 05:40:59;;;;;;;3.80;3.60;;;;;;;6.83;84.75;96862.97;5014072;28;20262;-69
2023/03/29 05:43:25;;;;;;;4.20;3.13;;;;;;;6.92;84.61;96865.16;5015657;28;20290;-69
2023/03/29 05:45:54;;;;;;;4.33;3.17;;;;;;;6.88;84.40;96865.75;5031633;28;20187;-69
2023/03/29 05:48:21;;;;;;;3.50;3.30;;;;;;;6.89;84.99;96860.38;5034556;28;20204;-69
2023/03/29 05:50:51;;;;;;;3.63;3.20;;;;;;;6.92;84.69;96856.53;5034585;28;20233;-70
2023/03/29 05:53:17;;;;;;;3.27;3.07;;;;;;;7.00;84.49;96861.56;5007910;28;20209;-69
2023/03/29 05:55:43;;;;;;;3.70;3.50;;;;;;;6.95;83.97;96864.78;5030402;28;20178;-69
2023/03/29 05:58:09;;;;;;;4.13;3.73;;;;;;;7.01;84.17;96863.16;5032847;28;20202;-69
2023/03/29 06:00:37;;;;;;;4.27;3.97;;;;;;;7.08;84.09;96866.53;5034385;28;20233;-69
2023/03/29 06:03:03;;;;;;;4.33;4.13;;;;;;;7.19;83.42;96859.94;5033814;28;20279;-69
2023/03/29 06:05:29;;;;;;;4.70;4.30;;;;;;;7.22;82.32;96868.16;5037091;28;20285;-69
2023/03/29 06:07:55;;;;;;;5.10;4.13;;;;;;;7.28;82.34;96869.13;5036567;28;20189;-68
2023/03/29 06:10:22;;;;;;;6.30;4.67;;;;;;;7.34;81.73;96866.53;5033895;28;20186;-69
2023/03/29 06:12:49;;;;;;;3.63;3.33;;;;;;;7.32;81.44;96867.72;5008700;28;20556;-68
2023/03/29 06:15:15;;;;;;;4.00;3.60;;;;;;;7.36;81.11;96869.72;5049370;28;20185;-68
2023/03/29 06:17:43;;;;;;;4.73;3.43;;;;;;;7.46;80.69;96867.50;5051126;28;20245;-69
2023/03/29 06:20:10;;;;;;;3.40;3.10;;;;;;;7.38;81.24;96867.72;5040368;28;20708;-68
2023/03/29 06:22:40;;;;;;;3.47;3.27;;;;;;;7.53;80.86;96870.06;5053802;28;20182;-69
2023/03/29 06:25:11;;;;;;;3.70;3.40;;;;;;;7.61;80.00;96864.63;5036536;28;20221;-69
2023/03/29 06:27:36;;;;;;;3.67;3.47;;;;;;;7.72;79.81;96860.59;5039750;28;20303;-68
2023/03/29 06:30:04;;;;;;;5.93;5.53;;;;;;;7.70;79.22;96867.81;5053472;28;20210;-69
2023/03/29 06:32:30;;;;;;;6.67;6.23;;;;;;;7.75;78.64;96860.97;5042021;28;20193;-68
2023/03/29 06:34:55;;;;;;;6.40;6.10;;;;;;;7.88;78.11;96871.38;5050059;28;20185;-68
2023/03/29 06:37:22;;;;;;;5.77;5.47;;;;;;;7.99;78.77;96867.28;5051203;28;20597;-68
2023/03/29 06:39:51;;;;;;;8.17;7.67;;;;;;;8.11;77.52;96877.88;5053514;28;20192;-68
2023/03/29 06:42:18;;;;;;;4.47;4.27;;;;;;;8.17;82.02;96877.84;5053591;28;20221;-71
2023/03/29 06:44:44;;;;;;;9.30;3.53;;;;;;;8.45;80.80;96885.38;5050663;28;20650;-70
2023/03/29 06:47:10;;;;;;;9.17;8.57;;;;;;;8.68;77.46;96882.19;5035220;28;20198;-69
2023/03/29 06:49:35;;;;;;;10.67;10.03;;;;;;;8.70;76.04;96888.81;5038774;28;20186;-69
2023/03/29 06:52:00;;;;;;;9.77;9.07;;;;;;;8.68;76.45;96897.88;5032385;28;20186;-69
2023/03/29 06:54:25;;;;;;;7.70;7.20;;;;;;;8.69;77.17;96887.19;5049389;28;20312;-69
2023/03/29 06:56:51;;;;;;;6.93;6.37;;;;;;;8.61;77.95;96899.72;5044373;28;20660;-69
2023/03/29 06:59:17;;;;;;;6.50;6.10;;;;;;;8.56;79.43;96899.56;5037423;28;20207;-69
2023/03/29 07:01:43;;;;;;;10.87;10.23;;;;;;;8.68;78.35;96903.09;5032064;28;20624;-67
2023/03/29 07:04:09;;;;;;;13.97;13.23;;;;;;;8.79;77.42;96899.81;5036067;28;20708;-69
2023/03/29 07:06:37;;;;;;;13.30;12.60;;;;;;;8.74;77.69;96908.28;5040296;28;20201;-69
2023/03/29 07:09:05;;;;;;;16.90;16.03;;;;;;;8.86;77.25;96905.00;5042424;28;20191;-69
2023/03/29 07:11:32;;;;;;;17.37;16.27;;;;;;;8.99;76.80;96912.72;5043448;28;20537;-69
2023/03/29 07:13:58;;;;;;;12.97;12.10;;;;;;;8.92;77.25;96906.72;5041963;28;20641;-69
2023/03/29 07:16:23;;;;;;;27.50;25.97;;;;;;;8.88;77.99;96911.59;5045216;28;20186;-69
2023/03/29 07:18:50;;;;;;;21.70;20.57;;;;;;;9.01;77.44;96908.09;5033062;28;20531;-69
2023/03/29 07:21:16;;;;;;;29.57;28.00;;;;;;;9.01;76.84;96903.66;5039782;28;20177;-69
2023/03/29 07:23:41;;;;;;;21.73;20.63;;;;;;;9.04;76.61;96907.66;5034387;28;20187;-69
2023/03/29 07:26:07;;;;;;;28.50;26.93;;;;;;;9.03;75.59;96904.22;5039624;28;20253;-69
2023/03/29 07:28:33;;;;;;;24.47;22.67;;;;;;;9.05;75.34;96914.47;5034322;28;20194;-69
2023/03/29 07:31:05;;;;;;;6.50;5.60;;;;;;;9.05;74.53;96910.06;5033582;28;20305;-69
2023/03/29 07:33:31;;;;;;;4.70;4.40;;;;;;;9.12;74.58;96907.41;5045570;28;20208;-69
2023/03/29 07:35:56;;;;;;;4.23;4.03;;;;;;;9.33;74.07;96914.03;5033052;28;20561;-69
2023/03/29 07:38:21;;;;;;;3.70;3.50;;;;;;;9.07;74.91;96908.03;5050002;28;20193;-69
2023/03/29 07:40:47;;;;;;;3.73;3.53;;;;;;;9.34;73.59;96916.44;5052470;28;20497;-69
2023/03/29 07:43:12;;;;;;;4.23;3.93;;;;;;;9.36;72.58;96931.94;5033966;28;20186;-69
2023/03/29 07:45:41;;;;;;;4.90;4.30;;;;;;;9.48;73.03;96919.72;5034324;28;20205;-69
2023/03/29 07:48:07;;;;;;;6.40;5.90;;;;;;;9.62;72.02;96920.41;5045936;28;20187;-69
2023/03/29 07:50:32;;;;;;;9.50;8.30;;;;;;;9.65;71.63;96927.81;5033344;28;20868;-69
2023/03/29 07:52:59;;;;;;;6.57;6.27;;;;;;;9.70;71.56;96927.97;5037561;28;20214;-69
2023/03/29 07:55:25;;;;;;;6.57;6.17;;;;;;;9.82;71.35;96936.69;5037720;28;20253;-69
2023/03/29 07:57:50;;;;;;;6.50;5.90;;;;;;;9.79;70.72;96932.72;5049478;28;20336;-69
2023/03/29 08:00:18;;;;;;;5.27;4.87;;;;;;;9.84;70.59;96932.88;5037977;28;20186;-69
2023/03/29 08:02:46;;;;;;;4.57;3.97;;;;;;;9.83;70.73;96940.94;5041354;28;20312;-69
2023/03/29 08:05:13;;;;;;;3.97;3.80;;;;;;;9.88;71.35;96935.84;5031403;28;20197;-69
2023/03/29 08:07:40;;;;;;;4.47;4.17;;;;;;;10.00;70.02;96932.28;5043543;28;20233;-69
2023/03/29 08:10:12;;;;;;;5.03;4.63;;;;;;;10.03;70.00;96936.25;5051171;28;20186;-69
2023/03/29 08:12:37;;;;;;;4.50;4.30;;;;;;;10.24;70.04;96928.00;5038419;28;20265;-69
2023/03/29 08:15:04;;;;;;;5.60;5.07;;;;;;;10.41;68.89;96925.56;5046730;28;20655;-69
2023/03/29 08:17:30;;;;;;;4.47;4.27;;;;;;;10.46;68.10;96927.53;5050794;28;20186;-69
2023/03/29 08:19:55;;;;;;;4.77;4.37;;;;;;;10.45;69.01;96920.69;5037193;28;20183;-69
2023/03/29 08:22:20;;;;;;;3.90;3.57;;;;;;;10.41;67.86;96929.00;5031499;28;20654;-69
2023/03/29 08:24:46;;;;;;;4.57;4.27;;;;;;;10.52;67.38;96924.81;5031514;28;20175;-69
2023/03/29 08:27:12;;;;;;;3.93;3.73;;;;;;;10.56;66.28;96933.81;5038939;28;20252;-69
2023/03/29 08:29:37;;;;;;;4.50;4.17;;;;;;;10.63;66.52;96934.53;5048056;28;20177;-69
2023/03/29 08:32:03;;;;;;;5.50;3.73;;;;;;;10.56;66.79;96925.97;5024303;28;20603;-69
2023/03/29 08:34:30;;;;;;;4.00;3.70;;;;;;;10.56;67.27;96925.16;5032634;28;20203;-69
2023/03/29 08:36:57;;;;;;;4.60;3.73;;;;;;;10.42;67.84;96925.34;5032198;28;20182;-69
2023/03/29 08:39:22;;;;;;;3.90;3.50;;;;;;;10.49;68.02;96925.25;5035544;28;20244;-69
2023/03/29 08:41:48;;;;;;;4.77;3.87;;;;;;;10.46;69.50;96930.94;5050312;28;20629;-70
2023/03/29 08:44:41;;;;;;;4.80;4.40;;;;;;;10.37;68.73;96929.63;5048455;28;20198;-69
2023/03/29 08:47:17;;;;;;;7.87;7.17;;;;;;;10.39;69.94;96931.03;5052021;28;20193;-69
2023/03/29 08:49:47;;;;;;;8.23;7.63;;;;;;;10.38;70.49;96928.63;5050913;28;20178;-69
2023/03/29 08:52:20;;;;;;;17.47;16.17;;;;;;;10.45;71.44;96926.72;5032087;28;20245;-70
2023/03/29 08:54:50;;;;;;;11.00;10.23;;;;;;;10.61;71.16;96923.47;5048434;28;20178;-69
2023/03/29 08:57:26;;;;;;;6.60;6.20;;;;;;;10.54;68.88;96925.38;5025280;28;20269;-70
2023/03/29 08:59:56;;;;;;;4.93;4.60;;;;;;;10.42;69.66;96925.34;5048435;28;20200;-69
2023/03/29 09:02:25;;;;;;;6.60;4.10;;;;;;;10.71;68.02;96922.94;5035474;28;20223;-70
2023/03/29 09:04:55;;;;;;;4.23;3.93;;;;;;;10.75;67.18;96903.94;5045133;28;20182;-70
2023/03/29 09:07:21;;;;;;;6.00;5.60;;;;;;;10.95;67.02;96919.34;5045196;28;20554;-70
2023/03/29 09:09:47;;;;;;;5.53;3.80;;;;;;;11.22;66.32;96915.28;5030874;28;20188;-70
2023/03/29 09:12:15;;;;;;;4.60;4.30;;;;;;;11.38;66.54;96918.25;5051464;28;20186;-69
2023/03/29 09:15:05;;;;;;;4.27;3.97;;;;;;;11.54;66.44;96920.19;5053835;28;20186;-70
2023/03/29 09:18:01;;;;;;;4.47;4.17;;;;;;;11.45;67.71;96921.56;5041122;28;20227;-70
2023/03/29 09:20:32;;;;;;;6.10;5.07;;;;;;;11.62;67.52;96914.59;5035719;28;20252;-70
2023/03/29 09:23:10;;;;;;;9.83;9.23;;;;;;;11.83;66.02;96921.91;5047843;28;20193;-70
2023/03/29 09:25:53;;;;;;;14.57;13.67;;;;;;;11.98;64.95;96913.56;5035559;28;20685;-70
2023/03/29 09:28:38;;;;;;;14.93;13.60;;;;;;;12.02;65.41;96912.06;5036296;28;20233;-70
2023/03/29 09:31:14;;;;;;;20.03;18.63;;;;;;;12.14;64.13;96906.78;5022868;28;20183;-70
2023/03/29 09:33:43;;;;;;;18.57;17.33;;;;;;;12.09;64.39;96910.09;5036486;28;20256;-70
2023/03/29 09:36:15;;;;;;;16.43;15.07;;;;;;;12.10;65.19;96909.06;5035323;28;20194;-69
2023/03/29 09:38:45;;;;;;;13.03;12.27;;;;;;;12.24;64.21;96901.72;5042557;28;20519;-70
2023/03/29 09:41:20;;;;;;;10.03;9.33;;;;;;;12.19;62.58;96902.41;5039759;28;20253;-70
2023/03/29 09:43:48;;;;;;;8.50;7.67;;;;;;;12.25;62.86;96885.72;5036424;28;20182;-70
2023/03/29 09:46:22;;;;;;;9.37;8.77;;;;;;;12.29;60.11;96889.47;5034876;28;20344;-70
2023/03/29 09:48:49;;;;;;;10.57;9.87;;;;;;;12.50;58.75;96891.44;5038218;28;20178;-69
2023/03/29 09:51:18;;;;;;;7.87;7.37;;;;;;;12.72;57.48;96896.81;5042711;28;20186;-70
2023/03/29 09:53:44;;;;;;;9.33;8.80;;;;;;;13.09;55.77;96884.00;5035788;28;20253;-70
2023/03/29 09:56:09;;;;;;;9.90;9.13;;;;;;;13.28;56.42;96882.75;5041922;28;20210;-69
2023/03/29 09:58:35;;;;;;;7.23;6.70;;;;;;;13.20;56.53;96882.38;5036738;28;20566;-70
2023/03/29 10:01:07;;;;;;;5.17;4.67;;;;;;;13.51;54.96;96875.69;5045431;28;20691;-70
2023/03/29 10:03:33;;;;;;;8.47;7.97;;;;;;;13.47;53.19;96883.28;5040300;28;20182;-69
2023/03/29 10:06:01;;;;;;;7.50;7.00;;;;;;;13.46;52.88;96891.41;5054171;28;20201;-70
2023/03/29 10:08:29;;;;;;;4.97;4.77;;;;;;;13.73;51.90;96895.75;5030469;28;20170;-70
2023/03/29 10:10:59;;;;;;;4.40;4.10;;;;;;;13.83;50.65;96881.09;5049681;28;20182;-70
2023/03/29 10:13:31;;;;;;;4.73;4.43;;;;;;;13.74;50.78;96888.66;5052728;28;20171;-70
2023/03/29 10:16:00;;;;;;;6.20;5.70;;;;;;;13.95;51.22;96884.44;5040730;28;20202;-69
2023/03/29 10:18:26;;;;;;;6.20;5.80;;;;;;;14.05;50.42;96874.00;5047593;28;20182;-70
2023/03/29 10:20:58;;;;;;;6.57;6.07;;;;;;;14.14;50.39;96873.34;5046991;28;20546;-70
2023/03/29 10:23:23;;;;;;;5.70;5.33;;;;;;;13.99;50.53;96881.06;5053897;28;20166;-70
2023/03/29 10:25:48;;;;;;;6.50;6.10;;;;;;;14.18;50.37;96878.09;5039879;28;20256;-70
2023/03/29 10:28:17;;;;;;;7.50;6.83;;;;;;;13.88;51.04;96881.97;5035142;28;20178;-70
2023/03/29 10:30:47;;;;;;;8.13;7.70;;;;;;;13.84;51.65;96880.06;5043853;28;20221;-69
2023/03/29 10:33:20;;;;;;;11.00;10.33;;;;;;;14.12;50.55;96878.06;5033372;28;20269;-70
2023/03/29 10:35:47;;;;;;;14.03;13.17;;;;;;;14.33;50.34;96878.25;5043362;28;20187;-70
2023/03/29 10:38:16;;;;;;;11.10;10.47;;;;;;;14.63;51.15;96875.97;5050508;28;20646;-70
2023/03/29 10:40:44;;;;;;;20.80;19.73;;;;;;;14.52;50.51;96871.66;5033088;28;20184;-70
2023/03/29 10:43:13;;;;;;;47.35;44.70;;;;;;;14.96;49.22;96867.81;5042768;28;20194;-69
2023/03/29 10:45:40;;;;;;;54.45;51.67;;;;;;;14.85;48.58;96870.63;5039686;28;20571;-69
2023/03/29 10:48:10;;;;;;;45.55;43.13;;;;;;;15.20;48.23;96857.72;5052838;28;20639;-68
2023/03/29 10:50:36;;;;;;;45.20;42.72;;;;;;;15.46;48.04;96855.22;5043526;28;20193;-68
2023/03/29 10:53:18;;;;;;;35.05;33.25;;;;;;;15.15;48.22;96854.25;5033638;28;20769;-68
2023/03/29 10:56:07;;;;;;;61.05;57.75;;;;;;;15.25;49.42;96849.81;5034792;28;20215;-69
2023/03/29 10:58:59;;;;;;;55.17;52.13;;;;;;;15.30;48.13;96849.84;5051413;28;20184;-68
2023/03/29 11:01:52;;;;;;;54.55;51.75;;;;;;;15.54;47.89;96847.66;5024733;28;20295;-68
2023/03/29 11:04:28;;;;;;;56.40;53.35;;;;;;;15.98;47.58;96849.97;5038010;28;20554;-68
2023/03/29 11:07:25;;;;;;;48.65;46.00;;;;;;;16.03;46.72;96857.91;5044008;28;20281;-68
2023/03/29 11:09:58;;;;;;;15.60;14.50;;;;;;;15.89;46.91;96852.28;5047257;28;20552;-69
2023/03/29 11:12:32;;;;;;;14.98;14.18;;;;;;;15.88;47.25;96848.09;5038964;28;20273;-69
2023/03/29 11:15:21;;;;;;;21.33;20.17;;;;;;;16.09;47.36;96841.81;5035081;28;20273;-69
2023/03/29 11:17:49;;;;;;;17.80;16.67;;;;;;;16.07;47.13;96833.34;5045699;28;20543;-69
2023/03/29 11:20:18;;;;;;;11.77;11.05;;;;;;;15.99;47.36;96831.22;5038978;28;20296;-69
2023/03/29 11:23:02;;;;;;;9.57;9.05;;;;;;;16.05;47.56;96832.78;5038632;28;20655;-69
2023/03/29 11:25:37;;;;;;;9.63;9.00;;;;;;;16.26;47.26;96830.22;5017476;28;20185;-69
2023/03/29 11:28:14;;;;;;;10.23;9.70;;;;;;;15.96;48.20;96825.63;5048131;28;20178;-70
2023/03/29 11:30:56;;;;;;;11.55;10.90;;;;;;;15.91;48.50;96821.13;5034402;28;20257;-69
2023/03/29 11:33:53;;;;;;;17.30;16.27;;;;;;;15.92;48.75;96821.91;5046949;28;20189;-69
2023/03/29 11:36:42;;;;;;;24.13;22.85;;;;;;;16.02;48.77;96832.53;5049980;28;20202;-69
2023/03/29 11:39:23;;;;;;;14.82;13.93;;;;;;;15.92;48.09;96828.00;5038221;28;20182;-69
2023/03/29 11:41:53;;;;;;;16.08;14.98;;;;;;;15.99;47.63;96825.13;5032965;28;20178;-70
2023/03/29 11:44:33;;;;;;;9.27;8.80;;;;;;;16.15;46.82;96822.25;5034864;28;20190;-69